sensor_id;sensor_type;location;lat;lon;timestamp;pressure;altitude;pressure_sealevel;temperature;humidity
70921;BME280;58572;48.110;19.838;2023-02-20T00:00:36;98267.56;;;3.31;59.20
70921;BME280;58572;48.110;19.838;2023-02-20T00:03:04;98299.19;;;3.47;64.68
70921;BME280;58572;48.110;19.838;2023-02-20T00:05:32;98289.56;;;3.70;59.24
70921;BME280;58572;48.110;19.838;2023-02-20T00:07:59;98293.16;;;3.34;61.72
70921;BME280;58572;48.110;19.838;2023-02-20T00:10:26;98303.28;;;3.50;62.72
70921;BME280;58572;48.110;19.838;2023-02-20T00:12:54;98294.31;;;3.56;66.58
70921;BME280;58572;48.110;19.838;2023-02-20T00:15:22;98289.97;;;3.55;66.18
70921;BME280;58572;48.110;19.838;2023-02-20T00:17:50;98300.72;;;4.62;63.84
70921;BME280;58572;48.110;19.838;2023-02-20T00:20:20;98307.38;;;4.24;60.85
70921;BME280;58572;48.110;19.838;2023-02-20T00:22:48;98325.25;;;3.47;65.10
70921;BME280;58572;48.110;19.838;2023-02-20T00:25:16;98332.19;;;2.38;67.00
70921;BME280;58572;48.110;19.838;2023-02-20T00:27:43;98328.75;;;2.31;63.44
70921;BME280;58572;48.110;19.838;2023-02-20T00:30:15;98336.75;;;2.81;64.84
70921;BME280;58572;48.110;19.838;2023-02-20T00:32:45;98173.63;;;2.03;65.99
70921;BME280;58572;48.110;19.838;2023-02-20T00:35:13;98342.50;;;2.41;66.88
70921;BME280;58572;48.110;19.838;2023-02-20T00:37:41;98341.25;;;3.24;64.29
70921;BME280;58572;48.110;19.838;2023-02-20T00:40:09;98345.22;;;2.60;67.18
70921;BME280;58572;48.110;19.838;2023-02-20T00:42:36;98338.97;;;2.41;68.07
70921;BME280;58572;48.110;19.838;2023-02-20T00:45:04;98284.91;;;2.62;66.83
70921;BME280;58572;48.110;19.838;2023-02-20T00:47:31;98334.41;;;2.66;66.09
70921;BME280;58572;48.110;19.838;2023-02-20T00:49:59;98321.59;;;3.41;67.31
70921;BME280;58572;48.110;19.838;2023-02-20T00:52:27;98320.22;;;3.50;67.20
70921;BME280;58572;48.110;19.838;2023-02-20T00:54:54;98245.59;;;3.04;65.00
70921;BME280;58572;48.110;19.838;2023-02-20T00:57:21;98288.78;;;3.21;63.82
70921;BME280;58572;48.110;19.838;2023-02-20T00:59:48;98307.25;;;4.19;63.41
70921;BME280;58572;48.110;19.838;2023-02-20T01:02:16;98317.81;;;2.94;65.06
70921;BME280;58572;48.110;19.838;2023-02-20T01:04:43;98314.75;;;3.57;65.78
70921;BME280;58572;48.110;19.838;2023-02-20T01:07:12;98310.97;;;3.76;62.07
70921;BME280;58572;48.110;19.838;2023-02-20T01:09:39;98315.25;;;3.36;66.21
70921;BME280;58572;48.110;19.838;2023-02-20T01:12:06;98316.53;;;3.63;59.79
70921;BME280;58572;48.110;19.838;2023-02-20T01:14:34;98306.09;;;3.55;62.80
70921;BME280;58572;48.110;19.838;2023-02-20T01:17:01;98329.34;;;2.76;65.11
70921;BME280;58572;48.110;19.838;2023-02-20T01:19:28;98321.41;;;3.25;66.53
70921;BME280;58572;48.110;19.838;2023-02-20T01:21:56;98322.06;;;3.68;63.40
70921;BME280;58572;48.110;19.838;2023-02-20T01:24:24;98317.94;;;3.96;64.40
70921;BME280;58572;48.110;19.838;2023-02-20T01:26:51;98318.59;;;3.49;65.17
70921;BME280;58572;48.110;19.838;2023-02-20T01:29:18;98313.69;;;3.46;64.09
70921;BME280;58572;48.110;19.838;2023-02-20T01:31:47;98305.75;;;3.93;65.31
70921;BME280;58572;48.110;19.838;2023-02-20T01:34:14;98304.81;;;3.28;66.96
70921;BME280;58572;48.110;19.838;2023-02-20T01:36:45;98296.81;;;3.69;62.47
70921;BME280;58572;48.110;19.838;2023-02-20T01:39:15;98307.28;;;3.59;64.89
70921;BME280;58572;48.110;19.838;2023-02-20T01:41:46;98303.75;;;3.89;63.52
70921;BME280;58572;48.110;19.838;2023-02-20T01:44:18;98295.91;;;4.17;63.83
70921;BME280;58572;48.110;19.838;2023-02-20T01:46:48;98300.94;;;3.05;66.95
70921;BME280;58572;48.110;19.838;2023-02-20T01:49:21;98292.41;;;3.45;65.97
70921;BME280;58572;48.110;19.838;2023-02-20T01:51:52;98290.78;;;2.52;65.84
70921;BME280;58572;48.110;19.838;2023-02-20T01:54:23;98281.97;;;3.37;64.97
70921;BME280;58572;48.110;19.838;2023-02-20T01:56:53;98232.94;;;2.38;65.52
70921;BME280;58572;48.110;19.838;2023-02-20T01:59:24;98277.22;;;2.47;67.25
70921;BME280;58572;48.110;19.838;2023-02-20T02:01:52;98281.47;;;3.28;66.96
70921;BME280;58572;48.110;19.838;2023-02-20T02:04:20;98288.63;;;3.34;66.33
70921;BME280;58572;48.110;19.838;2023-02-20T02:06:48;98289.75;;;3.08;64.83
70921;BME280;58572;48.110;19.838;2023-02-20T02:09:23;98309.91;;;2.99;67.26
70921;BME280;58572;48.110;19.838;2023-02-20T02:11:54;98277.16;;;2.91;66.85
70921;BME280;58572;48.110;19.838;2023-02-20T02:14:21;98278.91;;;3.63;65.20
70921;BME280;58572;48.110;19.838;2023-02-20T02:17:00;98313.16;;;3.38;66.14
70921;BME280;58572;48.110;19.838;2023-02-20T02:23:02;98331.03;;;3.14;64.47
70921;BME280;58572;48.110;19.838;2023-02-20T02:25:42;98247.44;;;2.06;66.57
70921;BME280;58572;48.110;19.838;2023-02-20T02:31:53;98339.59;;;2.43;68.39
70921;BME280;58572;48.110;19.838;2023-02-20T02:37:28;98359.56;;;2.22;68.78
70921;BME280;58572;48.110;19.838;2023-02-20T02:40:01;98364.84;;;2.04;69.99
70921;BME280;58572;48.110;19.838;2023-02-20T02:42:39;98345.28;;;2.28;69.34
70921;BME280;58572;48.110;19.838;2023-02-20T02:45:11;98350.19;;;2.99;65.18
70921;BME280;58572;48.110;19.838;2023-02-20T02:47:47;98336.16;;;3.34;64.00
70921;BME280;58572;48.110;19.838;2023-02-20T02:50:22;98346.84;;;3.40;65.71
70921;BME280;58572;48.110;19.838;2023-02-20T02:52:52;98307.50;;;3.09;66.03
70921;BME280;58572;48.110;19.838;2023-02-20T02:55:23;98345.22;;;3.69;65.00
70921;BME280;58572;48.110;19.838;2023-02-20T02:57:51;98342.13;;;3.96;65.16
70921;BME280;58572;48.110;19.838;2023-02-20T03:00:21;98337.72;;;4.13;65.21
70921;BME280;58572;48.110;19.838;2023-02-20T03:02:57;98345.03;;;3.82;65.40
70921;BME280;58572;48.110;19.838;2023-02-20T03:05:30;98351.00;;;4.26;64.83
70921;BME280;58572;48.110;19.838;2023-02-20T03:08:11;98349.16;;;4.38;63.97
70921;BME280;58572;48.110;19.838;2023-02-20T03:10:47;98350.09;;;4.02;65.07
70921;BME280;58572;48.110;19.838;2023-02-20T03:13:18;98344.66;;;3.49;65.92
70921;BME280;58572;48.110;19.838;2023-02-20T03:15:50;98334.66;;;3.98;65.21
70921;BME280;58572;48.110;19.838;2023-02-20T03:18:24;98339.53;;;3.89;65.83
70921;BME280;58572;48.110;19.838;2023-02-20T03:20:58;98339.44;;;4.26;64.81
70921;BME280;58572;48.110;19.838;2023-02-20T03:23:31;98347.16;;;4.34;64.62
70921;BME280;58572;48.110;19.838;2023-02-20T03:26:02;98354.78;;;4.37;63.77
70921;BME280;58572;48.110;19.838;2023-02-20T03:28:33;98362.97;;;4.00;64.99
70921;BME280;58572;48.110;19.838;2023-02-20T03:31:05;98368.53;;;3.57;65.94
70921;BME280;58572;48.110;19.838;2023-02-20T03:33:37;98379.00;;;4.07;65.36
70921;BME280;58572;48.110;19.838;2023-02-20T03:36:25;98380.47;;;4.21;65.13
70921;BME280;58572;48.110;19.838;2023-02-20T03:39:22;98383.09;;;4.39;64.14
70921;BME280;58572;48.110;19.838;2023-02-20T03:42:09;98376.19;;;4.02;65.74
70921;BME280;58572;48.110;19.838;2023-02-20T03:44:56;98376.28;;;4.25;64.50
70921;BME280;58572;48.110;19.838;2023-02-20T03:47:26;98370.78;;;3.90;66.08
70921;BME280;58572;48.110;19.838;2023-02-20T03:49:54;98390.22;;;2.82;66.23
70921;BME280;58572;48.110;19.838;2023-02-20T03:52:40;98383.84;;;3.87;64.72
70921;BME280;58572;48.110;19.838;2023-02-20T03:55:09;98388.59;;;4.33;64.10
70921;BME280;58572;48.110;19.838;2023-02-20T03:57:39;98406.84;;;4.31;64.83
70921;BME280;58572;48.110;19.838;2023-02-20T04:00:11;98409.09;;;3.85;65.30
70921;BME280;58572;48.110;19.838;2023-02-20T04:02:41;98414.38;;;3.62;65.21
70921;BME280;58572;48.110;19.838;2023-02-20T04:05:12;98406.38;;;4.04;65.33
70921;BME280;58572;48.110;19.838;2023-02-20T04:07:46;98414.34;;;4.10;65.46
70921;BME280;58572;48.110;19.838;2023-02-20T04:10:21;98417.28;;;3.61;64.86
70921;BME280;58572;48.110;19.838;2023-02-20T04:12:50;98393.66;;;3.81;65.96
70921;BME280;58572;48.110;19.838;2023-02-20T04:15:19;98390.94;;;4.11;64.40
70921;BME280;58572;48.110;19.838;2023-02-20T04:17:50;98375.34;;;3.41;66.63
70921;BME280;58572;48.110;19.838;2023-02-20T04:20:20;98362.19;;;3.81;65.40
70921;BME280;58572;48.110;19.838;2023-02-20T04:22:48;98366.19;;;3.12;66.26
70921;BME280;58572;48.110;19.838;2023-02-20T04:25:24;98361.38;;;3.33;67.29
70921;BME280;58572;48.110;19.838;2023-02-20T04:27:59;98362.69;;;3.60;65.37
70921;BME280;58572;48.110;19.838;2023-02-20T04:30:26;98353.41;;;3.74;66.34
70921;BME280;58572;48.110;19.838;2023-02-20T04:32:53;98359.78;;;3.92;65.32
70921;BME280;58572;48.110;19.838;2023-02-20T04:35:21;98361.59;;;3.79;64.97
70921;BME280;58572;48.110;19.838;2023-02-20T04:37:48;98369.56;;;3.01;67.18
70921;BME280;58572;48.110;19.838;2023-02-20T04:40:20;98360.28;;;3.70;64.69
70921;BME280;58572;48.110;19.838;2023-02-20T04:42:47;98377.28;;;4.12;64.53
70921;BME280;58572;48.110;19.838;2023-02-20T04:45:15;98379.00;;;4.07;65.24
70921;BME280;58572;48.110;19.838;2023-02-20T04:47:42;98350.63;;;3.51;65.92
70921;BME280;58572;48.110;19.838;2023-02-20T04:50:15;98384.75;;;3.50;66.21
70921;BME280;58572;48.110;19.838;2023-02-20T04:52:44;98384.84;;;4.04;65.12
70921;BME280;58572;48.110;19.838;2023-02-20T04:55:12;98356.88;;;3.93;64.55
70921;BME280;58572;48.110;19.838;2023-02-20T04:57:40;98318.41;;;3.63;64.92
70921;BME280;58572;48.110;19.838;2023-02-20T05:00:08;98380.44;;;3.79;65.49
70921;BME280;58572;48.110;19.838;2023-02-20T05:02:37;98387.50;;;3.92;64.91
70921;BME280;58572;48.110;19.838;2023-02-20T05:05:06;98387.19;;;3.52;65.69
70921;BME280;58572;48.110;19.838;2023-02-20T05:07:33;98384.84;;;4.04;63.64
70921;BME280;58572;48.110;19.838;2023-02-20T05:10:00;98362.19;;;4.11;63.80
70921;BME280;58572;48.110;19.838;2023-02-20T05:12:27;98389.41;;;3.73;65.65
70921;BME280;58572;48.110;19.838;2023-02-20T05:14:56;98373.44;;;3.60;65.87
70921;BME280;58572;48.110;19.838;2023-02-20T05:17:23;98391.00;;;3.93;64.46
70921;BME280;58572;48.110;19.838;2023-02-20T05:19:50;98396.88;;;4.01;63.66
70921;BME280;58572;48.110;19.838;2023-02-20T05:22:17;98398.25;;;3.44;66.54
70921;BME280;58572;48.110;19.838;2023-02-20T05:24:44;98395.84;;;3.72;63.38
70921;BME280;58572;48.110;19.838;2023-02-20T05:27:11;98398.25;;;3.92;64.45
70921;BME280;58572;48.110;19.838;2023-02-20T05:29:43;98404.16;;;3.52;65.29
70921;BME280;58572;48.110;19.838;2023-02-20T05:32:12;98408.81;;;3.75;65.53
70921;BME280;58572;48.110;19.838;2023-02-20T05:34:39;98406.56;;;3.91;65.25
70921;BME280;58572;48.110;19.838;2023-02-20T05:37:07;98404.81;;;3.96;64.15
70921;BME280;58572;48.110;19.838;2023-02-20T05:39:34;98400.53;;;4.07;64.14
70921;BME280;58572;48.110;19.838;2023-02-20T05:42:01;98411.19;;;3.83;64.71
70921;BME280;58572;48.110;19.838;2023-02-20T05:44:28;98422.13;;;3.70;65.09
70921;BME280;58572;48.110;19.838;2023-02-20T05:46:55;98423.78;;;3.53;64.44
70921;BME280;58572;48.110;19.838;2023-02-20T05:49:24;98423.78;;;3.71;64.67
70921;BME280;58572;48.110;19.838;2023-02-20T05:51:51;98301.25;;;2.97;60.55
70921;BME280;58572;48.110;19.838;2023-02-20T05:54:19;98416.72;;;2.97;64.90
70921;BME280;58572;48.110;19.838;2023-02-20T05:56:46;98411.75;;;3.74;64.99
70921;BME280;58572;48.110;19.838;2023-02-20T05:59:17;98413.78;;;2.80;67.42
70921;BME280;58572;48.110;19.838;2023-02-20T06:01:45;98414.75;;;3.47;66.14
70921;BME280;58572;48.110;19.838;2023-02-20T06:04:12;98421.78;;;3.97;63.91
70921;BME280;58572;48.110;19.838;2023-02-20T06:06:41;98418.09;;;3.61;61.74
70921;BME280;58572;48.110;19.838;2023-02-20T06:09:10;98444.91;;;3.13;63.97
70921;BME280;58572;48.110;19.838;2023-02-20T06:11:46;98446.19;;;3.47;64.61
70921;BME280;58572;48.110;19.838;2023-02-20T06:14:16;98449.75;;;3.23;63.70
70921;BME280;58572;48.110;19.838;2023-02-20T06:16:43;98451.25;;;3.55;65.08
70921;BME280;58572;48.110;19.838;2023-02-20T06:19:13;98444.91;;;4.46;62.11
70921;BME280;58572;48.110;19.838;2023-02-20T06:21:45;98445.91;;;4.33;62.74
70921;BME280;58572;48.110;19.838;2023-02-20T06:24:12;98438.06;;;4.32;62.84
70921;BME280;58572;48.110;19.838;2023-02-20T06:26:40;98408.19;;;3.25;64.92
70921;BME280;58572;48.110;19.838;2023-02-20T06:29:07;98453.19;;;3.66;62.97
70921;BME280;58572;48.110;19.838;2023-02-20T06:31:35;98449.13;;;3.94;64.90
70921;BME280;58572;48.110;19.838;2023-02-20T06:34:02;98457.31;;;3.69;62.20
70921;BME280;58572;48.110;19.838;2023-02-20T06:36:31;98399.06;;;3.93;63.28
70921;BME280;58572;48.110;19.838;2023-02-20T06:39:00;98459.84;;;4.30;63.25
70921;BME280;58572;48.110;19.838;2023-02-20T06:41:27;98464.03;;;4.26;62.77
70921;BME280;58572;48.110;19.838;2023-02-20T06:43:54;98468.63;;;3.16;64.00
70921;BME280;58572;48.110;19.838;2023-02-20T06:46:21;98452.91;;;3.56;65.55
70921;BME280;58572;48.110;19.838;2023-02-20T06:48:50;98413.44;;;4.58;61.45
70921;BME280;58572;48.110;19.838;2023-02-20T06:51:18;98443.03;;;4.46;63.25
70921;BME280;58572;48.110;19.838;2023-02-20T06:53:45;98458.19;;;4.29;62.92
70921;BME280;58572;48.110;19.838;2023-02-20T06:56:16;98449.75;;;4.67;62.66
70921;BME280;58572;48.110;19.838;2023-02-20T06:58:45;98447.22;;;5.07;61.09
70921;BME280;58572;48.110;19.838;2023-02-20T07:01:12;98455.16;;;4.91;61.37
70921;BME280;58572;48.110;19.838;2023-02-20T07:03:40;98444.41;;;5.14;61.17
70921;BME280;58572;48.110;19.838;2023-02-20T07:06:07;98448.63;;;5.33;60.61
70921;BME280;58572;48.110;19.838;2023-02-20T07:08:34;98447.06;;;4.79;58.25
70921;BME280;58572;48.110;19.838;2023-02-20T07:11:01;98451.06;;;5.11;60.96
70921;BME280;58572;48.110;19.838;2023-02-20T07:13:29;98449.19;;;5.00;59.99
70921;BME280;58572;48.110;19.838;2023-02-20T07:15:56;98451.44;;;4.38;61.77
70921;BME280;58572;48.110;19.838;2023-02-20T07:18:23;98358.53;;;4.47;60.64
70921;BME280;58572;48.110;19.838;2023-02-20T07:20:51;98414.41;;;4.99;61.22
70921;BME280;58572;48.110;19.838;2023-02-20T07:23:19;98431.53;;;5.39;58.99
70921;BME280;58572;48.110;19.838;2023-02-20T07:25:46;98440.75;;;5.08;59.73
70921;BME280;58572;48.110;19.838;2023-02-20T07:28:14;98438.31;;;5.07;60.64
70921;BME280;58572;48.110;19.838;2023-02-20T07:30:43;98448.28;;;4.41;63.00
70921;BME280;58572;48.110;19.838;2023-02-20T07:33:11;98450.72;;;4.31;63.47
70921;BME280;58572;48.110;19.838;2023-02-20T07:35:38;98449.94;;;4.42;62.52
70921;BME280;58572;48.110;19.838;2023-02-20T07:38:05;98446.03;;;4.80;61.75
70921;BME280;58572;48.110;19.838;2023-02-20T07:40:32;98383.00;;;4.16;61.80
70921;BME280;58572;48.110;19.838;2023-02-20T07:42:59;98416.63;;;5.13;59.66
70921;BME280;58572;48.110;19.838;2023-02-20T07:45:26;98443.91;;;4.82;61.59
70921;BME280;58572;48.110;19.838;2023-02-20T07:47:54;98444.63;;;4.77;61.79
70921;BME280;58572;48.110;19.838;2023-02-20T07:50:22;98449.31;;;4.82;61.59
70921;BME280;58572;48.110;19.838;2023-02-20T07:52:49;98448.41;;;5.23;60.64
70921;BME280;58572;48.110;19.838;2023-02-20T07:55:17;98436.81;;;5.23;59.88
70921;BME280;58572;48.110;19.838;2023-02-20T07:57:45;98444.16;;;3.79;64.23
70921;BME280;58572;48.110;19.838;2023-02-20T08:00:15;98439.44;;;4.64;61.95
70921;BME280;58572;48.110;19.838;2023-02-20T08:02:43;98444.03;;;4.99;61.01
70921;BME280;58572;48.110;19.838;2023-02-20T08:05:11;98446.75;;;4.99;62.05
70921;BME280;58572;48.110;19.838;2023-02-20T08:07:43;98441.09;;;4.77;61.83
70921;BME280;58572;48.110;19.838;2023-02-20T08:10:11;98332.06;;;3.91;60.95
70921;BME280;58572;48.110;19.838;2023-02-20T08:12:39;98438.75;;;4.80;61.82
70921;BME280;58572;48.110;19.838;2023-02-20T08:15:07;98448.28;;;3.63;64.78
70921;BME280;58572;48.110;19.838;2023-02-20T08:17:37;98428.22;;;5.02;62.24
70921;BME280;58572;48.110;19.838;2023-02-20T08:20:05;98423.47;;;3.61;64.38
70921;BME280;58572;48.110;19.838;2023-02-20T08:22:34;98417.22;;;4.80;62.69
70921;BME280;58572;48.110;19.838;2023-02-20T08:25:01;98384.19;;;4.73;62.66
70921;BME280;58572;48.110;19.838;2023-02-20T08:27:29;98399.03;;;5.46;60.52
70921;BME280;58572;48.110;19.838;2023-02-20T08:29:57;98414.31;;;3.99;63.33
70921;BME280;58572;48.110;19.838;2023-02-20T08:32:24;98414.06;;;4.19;63.49
70921;BME280;58572;48.110;19.838;2023-02-20T08:34:51;98395.66;;;4.92;60.97
70921;BME280;58572;48.110;19.838;2023-02-20T08:37:18;98390.25;;;5.16;61.01
70921;BME280;58572;48.110;19.838;2023-02-20T08:39:47;98364.28;;;4.86;61.72
70921;BME280;58572;48.110;19.838;2023-02-20T08:42:15;98391.56;;;4.78;60.53
70921;BME280;58572;48.110;19.838;2023-02-20T08:44:42;98397.72;;;5.60;59.45
70921;BME280;58572;48.110;19.838;2023-02-20T08:47:09;98401.28;;;4.91;61.57
70921;BME280;58572;48.110;19.838;2023-02-20T08:49:36;98403.41;;;5.35;61.77
70921;BME280;58572;48.110;19.838;2023-02-20T08:52:04;98398.88;;;5.64;59.45
70921;BME280;58572;48.110;19.838;2023-02-20T08:54:31;98328.41;;;5.21;59.91
70921;BME280;58572;48.110;19.838;2023-02-20T08:57:00;98392.69;;;5.52;59.84
70921;BME280;58572;48.110;19.838;2023-02-20T08:59:30;98378.31;;;5.75;59.78
70921;BME280;58572;48.110;19.838;2023-02-20T09:01:57;98378.25;;;5.58;60.47
70921;BME280;58572;48.110;19.838;2023-02-20T09:04:24;98387.44;;;5.45;60.03
70921;BME280;58572;48.110;19.838;2023-02-20T09:06:51;98380.09;;;4.94;60.21
70921;BME280;58572;48.110;19.838;2023-02-20T09:09:18;98389.00;;;4.83;61.69
70921;BME280;58572;48.110;19.838;2023-02-20T09:11:46;98387.16;;;5.99;59.59
70921;BME280;58572;48.110;19.838;2023-02-20T09:14:15;98385.81;;;6.58;58.22
70921;BME280;58572;48.110;19.838;2023-02-20T09:16:42;98384.69;;;5.57;59.70
70921;BME280;58572;48.110;19.838;2023-02-20T09:19:09;98386.84;;;5.84;59.15
70921;BME280;58572;48.110;19.838;2023-02-20T09:21:38;98305.22;;;6.05;58.64
70921;BME280;58572;48.110;19.838;2023-02-20T09:24:05;98375.69;;;5.92;58.71
70921;BME280;58572;48.110;19.838;2023-02-20T09:26:33;98304.38;;;6.88;57.12
70921;BME280;58572;48.110;19.838;2023-02-20T09:29:00;98360.44;;;7.15;57.09
70921;BME280;58572;48.110;19.838;2023-02-20T09:31:28;98371.81;;;5.88;59.78
70921;BME280;58572;48.110;19.838;2023-02-20T09:33:55;98370.41;;;6.59;60.64
70921;BME280;58572;48.110;19.838;2023-02-20T09:36:23;98361.72;;;6.90;58.80
70921;BME280;58572;48.110;19.838;2023-02-20T09:38:50;98373.91;;;5.97;60.94
70921;BME280;58572;48.110;19.838;2023-02-20T09:41:26;98379.66;;;5.61;61.13
70921;BME280;58572;48.110;19.838;2023-02-20T09:43:59;98389.13;;;5.63;62.63
70921;BME280;58572;48.110;19.838;2023-02-20T09:46:30;98393.19;;;5.77;62.08
70921;BME280;58572;48.110;19.838;2023-02-20T09:49:03;98393.50;;;5.53;62.62
70921;BME280;58572;48.110;19.838;2023-02-20T09:51:33;98396.25;;;5.18;63.64
70921;BME280;58572;48.110;19.838;2023-02-20T09:54:04;98378.69;;;6.07;61.71
70921;BME280;58572;48.110;19.838;2023-02-20T09:56:35;98368.88;;;6.18;59.95
70921;BME280;58572;48.110;19.838;2023-02-20T09:59:09;98376.31;;;5.19;63.80
70921;BME280;58572;48.110;19.838;2023-02-20T10:01:42;98363.16;;;6.14;62.46
70921;BME280;58572;48.110;19.838;2023-02-20T10:04:14;98367.69;;;5.57;63.31
70921;BME280;58572;48.110;19.838;2023-02-20T10:06:44;98369.06;;;5.07;65.10
70921;BME280;58572;48.110;19.838;2023-02-20T10:09:14;98364.16;;;5.04;65.71
70921;BME280;58572;48.110;19.838;2023-02-20T10:11:51;98363.53;;;5.77;63.32
70921;BME280;58572;48.110;19.838;2023-02-20T10:14:33;98357.16;;;5.84;62.33
70921;BME280;58572;48.110;19.838;2023-02-20T10:17:21;98369.47;;;5.91;62.42
70921;BME280;58572;48.110;19.838;2023-02-20T10:20:08;98255.38;;;5.34;62.77
70921;BME280;58572;48.110;19.838;2023-02-20T10:22:47;98327.44;;;6.40;62.20
70921;BME280;58572;48.110;19.838;2023-02-20T10:25:21;98333.06;;;6.22;61.84
70921;BME280;58572;48.110;19.838;2023-02-20T10:27:56;98333.66;;;5.67;63.39
70921;BME280;58572;48.110;19.838;2023-02-20T10:30:28;98338.19;;;5.78;64.43
70921;BME280;58572;48.110;19.838;2023-02-20T10:33:14;98336.81;;;6.04;62.72
70921;BME280;58572;48.110;19.838;2023-02-20T10:35:47;98340.59;;;5.11;64.48
70921;BME280;58572;48.110;19.838;2023-02-20T10:38:19;98339.88;;;6.42;62.05
70921;BME280;58572;48.110;19.838;2023-02-20T10:40:48;98340.38;;;5.93;63.32
70921;BME280;58572;48.110;19.838;2023-02-20T10:43:22;98336.88;;;6.09;62.36
70921;BME280;58572;48.110;19.838;2023-02-20T10:45:53;98336.69;;;6.45;62.12
70921;BME280;58572;48.110;19.838;2023-02-20T10:48:29;98330.16;;;6.40;61.33
70921;BME280;58572;48.110;19.838;2023-02-20T10:51:03;98328.47;;;6.23;62.07
70921;BME280;58572;48.110;19.838;2023-02-20T10:53:36;98327.81;;;5.19;65.74
70921;BME280;58572;48.110;19.838;2023-02-20T10:56:08;98319.31;;;5.78;64.51
70921;BME280;58572;48.110;19.838;2023-02-20T10:58:42;98227.38;;;5.97;62.75
70921;BME280;58572;48.110;19.838;2023-02-20T11:01:13;98292.72;;;6.16;63.40
70921;BME280;58572;48.110;19.838;2023-02-20T11:03:47;98305.00;;;5.50;64.50
70921;BME280;58572;48.110;19.838;2023-02-20T11:06:18;98300.97;;;6.09;64.54
70921;BME280;58572;48.110;19.838;2023-02-20T11:08:46;98301.19;;;6.36;63.50
70921;BME280;58572;48.110;19.838;2023-02-20T11:11:29;98293.06;;;6.53;62.49
70921;BME280;58572;48.110;19.838;2023-02-20T11:13:59;98287.88;;;6.68;62.46
70921;BME280;58572;48.110;19.838;2023-02-20T11:16:30;98293.13;;;6.07;65.13
70921;BME280;58572;48.110;19.838;2023-02-20T11:19:17;98278.84;;;6.40;64.95
70921;BME280;58572;48.110;19.838;2023-02-20T11:21:48;98268.69;;;6.48;63.17
70921;BME280;58572;48.110;19.838;2023-02-20T11:24:30;98268.97;;;6.68;65.14
70921;BME280;58572;48.110;19.838;2023-02-20T11:27:04;97985.97;;;5.10;64.92
70921;BME280;58572;48.110;19.838;2023-02-20T11:29:36;98249.69;;;6.81;62.82
70921;BME280;58572;48.110;19.838;2023-02-20T11:32:24;98246.53;;;6.29;65.33
70921;BME280;58572;48.110;19.838;2023-02-20T11:35:20;98244.16;;;6.71;65.33
70921;BME280;58572;48.110;19.838;2023-02-20T11:44:04;98235.78;;;6.51;66.49
70921;BME280;58572;48.110;19.838;2023-02-20T11:46:33;98233.44;;;6.04;67.23
70921;BME280;58572;48.110;19.838;2023-02-20T11:49:02;98235.22;;;6.15;68.38
70921;BME280;58572;48.110;19.838;2023-02-20T11:51:36;98150.69;;;6.70;66.45
70921;BME280;58572;48.110;19.838;2023-02-20T11:54:09;98135.28;;;5.76;67.55
70921;BME280;58572;48.110;19.838;2023-02-20T11:56:36;98219.66;;;6.99;65.85
70921;BME280;58572;48.110;19.838;2023-02-20T11:59:29;98225.44;;;6.26;67.51
70921;BME280;58572;48.110;19.838;2023-02-20T12:02:18;98212.53;;;6.50;65.71
70921;BME280;58572;48.110;19.838;2023-02-20T12:05:08;98206.28;;;7.58;63.93
70921;BME280;58572;48.110;19.838;2023-02-20T12:07:39;98212.34;;;7.22;65.21
70921;BME280;58572;48.110;19.838;2023-02-20T12:10:18;98154.22;;;6.97;64.90
70921;BME280;58572;48.110;19.838;2023-02-20T12:12:48;98197.88;;;6.84;65.84
70921;BME280;58572;48.110;19.838;2023-02-20T12:15:16;98197.66;;;7.13;65.85
70921;BME280;58572;48.110;19.838;2023-02-20T12:17:56;98177.19;;;6.95;67.16
70921;BME280;58572;48.110;19.838;2023-02-20T12:20:28;98163.72;;;7.49;63.79
70921;BME280;58572;48.110;19.838;2023-02-20T12:23:03;98158.56;;;7.47;64.23
70921;BME280;58572;48.110;19.838;2023-02-20T12:25:44;98135.41;;;7.08;65.99
70921;BME280;58572;48.110;19.838;2023-02-20T12:28:22;98148.06;;;7.56;66.67
70921;BME280;58572;48.110;19.838;2023-02-20T12:31:03;98148.06;;;7.56;66.14
70921;BME280;58572;48.110;19.838;2023-02-20T12:33:46;98146.28;;;7.66;66.01
70921;BME280;58572;48.110;19.838;2023-02-20T12:36:26;98155.84;;;7.47;66.25
70921;BME280;58572;48.110;19.838;2023-02-20T12:38:57;98139.59;;;6.93;68.38
70921;BME280;58572;48.110;19.838;2023-02-20T12:41:37;98169.69;;;7.02;68.07
70921;BME280;58572;48.110;19.838;2023-02-20T12:44:22;98176.19;;;6.79;68.17
70921;BME280;58572;48.110;19.838;2023-02-20T12:47:00;98171.03;;;7.26;66.63
70921;BME280;58572;48.110;19.838;2023-02-20T12:55:30;98163.00;;;6.61;69.06
70921;BME280;58572;48.110;19.838;2023-02-20T12:58:08;98103.88;;;6.43;69.52
70921;BME280;58572;48.110;19.838;2023-02-20T13:00:44;98144.81;;;7.27;66.83
70921;BME280;58572;48.110;19.838;2023-02-20T13:03:17;98141.50;;;6.71;68.21
70921;BME280;58572;48.110;19.838;2023-02-20T13:05:47;98140.59;;;6.87;68.59
70921;BME280;58572;48.110;19.838;2023-02-20T13:08:20;98131.06;;;7.60;67.07
70921;BME280;58572;48.110;19.838;2023-02-20T13:10:55;98121.19;;;7.44;67.31
70921;BME280;58572;48.110;19.838;2023-02-20T13:13:24;98116.50;;;7.66;67.85
70921;BME280;58572;48.110;19.838;2023-02-20T13:15:57;98124.19;;;7.48;67.41
70921;BME280;58572;48.110;19.838;2023-02-20T13:18:33;98112.13;;;7.01;69.16
70921;BME280;58572;48.110;19.838;2023-02-20T13:21:05;97985.88;;;7.02;68.22
70921;BME280;58572;48.110;19.838;2023-02-20T13:23:36;98091.56;;;7.59;68.72
70921;BME280;58572;48.110;19.838;2023-02-20T13:29:24;98101.31;;;7.60;68.83
70921;BME280;58572;48.110;19.838;2023-02-20T13:31:53;97837.00;;;6.29;67.00
70921;BME280;58572;48.110;19.838;2023-02-20T13:34:36;98110.47;;;7.54;67.15
70921;BME280;58572;48.110;19.838;2023-02-20T13:37:04;98107.53;;;7.61;69.85
70921;BME280;58572;48.110;19.838;2023-02-20T13:39:35;98101.31;;;7.60;68.62
70921;BME280;58572;48.110;19.838;2023-02-20T13:42:24;98107.28;;;7.99;68.30
70921;BME280;58572;48.110;19.838;2023-02-20T13:44:52;97993.06;;;6.86;69.33